Time;durP1;ratioP1;P1;durP2;ratioP2;P2;SDS_P1;SDS_P2;PMS_P1;PMS_P2;Temp;Humidity;BMP_temperature;BMP_pressure;BME280_temperature;BME280_humidity;BME280_pressure;Samples;Min_cycle;Max_cycle;Signal;HPM_P1;HPM_P2
2022/10/09 00:01:04;;;;;;;4.93;3.00;;;;;;;-145.18;100.00;46676.03;6212521;23;20000;-68
2022/10/09 00:03:29;;;;;;;4.83;2.43;;;;;;;-145.18;100.00;46676.03;6212950;23;20018;-68
2022/10/09 00:05:55;;;;;;;9.33;4.17;;;;;;;-145.18;100.00;46672.13;6213800;23;20321;-68
2022/10/09 00:08:20;;;;;;;12.17;3.27;;;;;;;-145.18;100.00;46679.94;6213288;23;20323;-68
2022/10/09 00:10:45;;;;;;;9.20;3.10;;;;;;;-145.18;100.00;46676.03;6213437;23;20005;-68
2022/10/09 00:13:11;;;;;;;9.43;3.33;;;;;;;-145.18;100.00;46674.06;6213040;23;20039;-68
2022/10/09 00:15:41;;;;;;;10.87;4.60;;;;;;;-145.18;100.00;46677.97;6213160;23;20123;-68
2022/10/09 00:18:08;;;;;;;10.77;4.13;;;;;;;-145.18;100.00;46681.88;6212993;23;20547;-68
2022/10/09 00:20:39;;;;;;;9.13;4.47;;;;;;;-145.18;100.00;46676.03;6213291;23;20794;-68
2022/10/09 00:23:05;;;;;;;9.70;4.70;;;;;;;-145.18;100.00;46681.88;6213219;23;20288;-68
2022/10/09 00:25:31;;;;;;;12.70;5.07;;;;;;;-145.18;100.00;46679.94;6213229;23;20242;-67
2022/10/09 00:27:57;;;;;;;8.07;4.20;;;;;;;-145.18;100.00;46672.13;6213191;23;20011;-68
2022/10/09 00:30:22;;;;;;;8.43;4.23;;;;;;;-145.18;100.00;46676.03;6213226;23;20001;-68
2022/10/09 00:32:48;;;;;;;12.03;5.10;;;;;;;-145.18;100.00;46679.94;6212726;23;20238;-68
2022/10/09 00:35:13;;;;;;;9.03;4.60;;;;;;;-145.18;100.00;46689.69;6213476;23;20020;-68
2022/10/09 00:37:38;;;;;;;15.07;4.80;;;;;;;-145.18;100.00;46668.22;6212620;23;20036;-68
2022/10/09 00:40:04;;;;;;;10.87;4.83;;;;;;;-145.18;100.00;46674.06;6213169;23;20138;-68
2022/10/09 00:42:30;;;;;;;13.77;5.33;;;;;;;-145.18;100.00;46676.03;6212657;23;20009;-68
2022/10/09 00:44:58;;;;;;;8.30;4.50;;;;;;;-145.18;100.00;46668.22;6213198;23;20458;-68
2022/10/09 00:47:34;;;;;;;8.77;4.13;;;;;;;-145.18;100.00;46676.03;6212597;23;20063;-68
2022/10/09 00:50:18;;;;;;;8.98;3.67;;;;;;;-145.18;100.00;46674.06;6213104;23;20314;-68
2022/10/09 00:52:44;;;;;;;6.40;3.00;;;;;;;-145.18;100.00;46672.13;6212613;23;20009;-68
2022/10/09 00:55:13;;;;;;;8.60;4.30;;;;;;;-145.18;100.00;46676.03;6212935;23;20288;-68
2022/10/09 00:57:40;;;;;;;8.03;4.10;;;;;;;-145.18;100.00;46679.94;6212951;23;20000;-68
2022/10/09 01:00:09;;;;;;;10.13;4.57;;;;;;;-145.18;100.00;46674.06;6213135;23;20231;-68
2022/10/09 01:02:35;;;;;;;8.83;4.93;;;;;;;-145.18;100.00;46683.84;6212814;23;20657;-68
2022/10/09 01:05:01;;;;;;;14.27;4.90;;;;;;;-145.18;100.00;46681.88;6212722;23;20226;-68
2022/10/09 01:07:29;;;;;;;11.40;4.60;;;;;;;-145.18;100.00;46677.97;6212713;23;20260;-68
2022/10/09 01:10:13;;;;;;;11.57;4.80;;;;;;;-145.18;100.00;46679.94;6213144;23;20011;-68
2022/10/09 01:12:45;;;;;;;10.40;4.90;;;;;;;-145.18;100.00;46677.97;6212308;23;20227;-68
2022/10/09 01:15:18;;;;;;;9.00;4.70;;;;;;;-145.18;100.00;46677.97;6212626;23;20679;-68
2022/10/09 01:17:58;;;;;;;9.83;4.33;;;;;;;-145.18;100.00;46672.13;6212508;23;20599;-68
2022/10/09 01:20:29;;;;;;;7.03;4.30;;;;;;;-145.18;100.00;46672.13;6212898;23;20227;-68
2022/10/09 01:23:22;;;;;;;11.10;4.73;;;;;;;-145.18;100.00;46674.06;6212753;23;20222;-68
2022/10/09 01:26:06;;;;;;;5.83;3.60;;;;;;;-145.18;100.00;46674.06;6212894;23;20234;-68
2022/10/09 01:28:33;;;;;;;8.30;4.27;;;;;;;-145.18;100.00;46676.03;6210256;23;20233;-68
2022/10/09 01:31:04;;;;;;;10.37;3.37;;;;;;;-145.18;100.00;46676.03;6212801;23;20222;-68
2022/10/09 01:33:31;;;;;;;6.77;2.73;;;;;;;-145.18;100.00;46672.13;6212157;23;20260;-68
2022/10/09 01:35:58;;;;;;;10.47;3.73;;;;;;;-145.18;100.00;46666.25;6212294;23;20269;-68
2022/10/09 01:38:24;;;;;;;3.80;2.53;;;;;;;-145.18;100.00;46666.25;6236000;23;20280;-68
2022/10/09 01:40:52;;;;;;;6.60;2.90;;;;;;;-145.18;100.00;46672.13;6212338;23;20239;-68
2022/10/09 01:43:17;;;;;;;9.17;4.30;;;;;;;-145.18;100.00;46670.16;6212049;23;20242;-67
2022/10/09 01:45:44;;;;;;;7.80;4.90;;;;;;;-145.18;100.00;46677.97;6212258;23;20245;-67
2022/10/09 01:48:16;;;;;;;11.53;4.70;;;;;;;-145.18;100.00;46672.13;6212339;23;20009;-68
2022/10/09 01:50:52;;;;;;;8.27;4.17;;;;;;;-145.18;100.00;46666.25;6212663;23;20226;-68
2022/10/09 01:53:19;;;;;;;11.05;5.28;;;;;;;-145.18;100.00;46666.25;6212307;23;20257;-68
2022/10/09 01:55:50;;;;;;;15.87;5.33;;;;;;;-145.18;100.00;46664.31;6212825;23;20373;-68
2022/10/09 01:58:39;;;;;;;8.93;4.60;;;;;;;-145.18;100.00;46666.25;6212416;23;20627;-68
2022/10/09 02:01:14;;;;;;;9.80;4.40;;;;;;;-145.18;100.00;46668.22;6212870;23;20222;-68
2022/10/09 02:03:42;;;;;;;12.03;3.87;;;;;;;-145.18;100.00;46664.31;6211290;23;20241;-68
2022/10/09 02:06:11;;;;;;;9.77;4.60;;;;;;;-145.18;100.00;46664.31;6212609;23;20236;-68
2022/10/09 02:08:39;;;;;;;10.87;5.70;;;;;;;-145.18;100.00;46666.25;6211389;23;20233;-68
2022/10/09 02:11:05;;;;;;;10.33;4.80;;;;;;;-145.18;100.00;46666.25;6212787;23;20234;-68
2022/10/09 02:13:32;;;;;;;4.83;2.93;;;;;;;-145.18;100.00;46666.25;6211691;23;20300;-68
2022/10/09 02:16:13;;;;;;;7.20;2.93;;;;;;;-145.18;100.00;46666.25;6212303;23;20337;-68
2022/10/09 02:18:44;;;;;;;6.20;3.00;;;;;;;-145.18;100.00;46666.25;6211750;23;20679;-68
2022/10/09 02:21:22;;;;;;;9.97;3.60;;;;;;;-145.18;100.00;46672.13;6212374;23;20229;-68
2022/10/09 02:23:50;;;;;;;10.00;3.90;;;;;;;-145.18;100.00;46670.16;6212121;23;20222;-68
2022/10/09 02:26:17;;;;;;;9.37;4.67;;;;;;;-145.18;100.00;46664.31;6212279;23;20238;-67
2022/10/09 02:28:42;;;;;;;14.43;5.10;;;;;;;-145.18;100.00;46670.16;6211628;23;20258;-68
2022/10/09 02:31:18;;;;;;;12.13;5.67;;;;;;;-145.18;100.00;46674.06;6212572;23;20234;-68
2022/10/09 02:33:44;;;;;;;7.33;4.87;;;;;;;-145.18;100.00;46668.22;6211818;23;20510;-68
2022/10/09 02:36:09;;;;;;;11.57;5.27;;;;;;;-145.18;100.00;46670.16;6212231;23;20305;-68
2022/10/09 02:38:35;;;;;;;10.63;4.90;;;;;;;-145.18;100.00;46674.06;6235142;23;20005;-68
2022/10/09 02:41:00;;;;;;;10.70;6.00;;;;;;;-145.18;100.00;46670.16;6212349;23;20070;-68
2022/10/09 02:43:26;;;;;;;8.80;6.00;;;;;;;-145.18;100.00;46670.16;6212083;23;20044;-68
2022/10/09 02:45:52;;;;;;;6.77;3.13;;;;;;;-145.18;100.00;46674.06;6212575;23;20023;-67
2022/10/09 02:48:17;;;;;;;6.73;4.67;;;;;;;-145.18;100.00;46677.97;6211713;23;20317;-68
2022/10/09 02:50:42;;;;;;;13.47;5.90;;;;;;;-145.18;100.00;46676.03;6212137;23;20059;-67
2022/10/09 02:53:08;;;;;;;10.67;5.80;;;;;;;-145.18;100.00;46674.06;6212048;23;20409;-68
2022/10/09 02:55:35;;;;;;;14.23;5.83;;;;;;;-145.18;100.00;46668.22;6212010;23;20028;-68
2022/10/09 02:58:00;;;;;;;13.33;6.93;;;;;;;-145.18;100.00;46672.13;6211836;23;20054;-68
2022/10/09 03:03:06;;;;;;;11.40;6.30;;;;;;;-145.18;100.00;46670.16;6211500;23;20456;-69
2022/10/09 03:05:32;;;;;;;9.37;4.87;;;;;;;-145.18;100.00;46664.31;6242487;23;20269;-69
2022/10/09 03:07:57;;;;;;;9.87;4.90;;;;;;;-145.18;100.00;46668.22;6241776;23;20457;-69
2022/10/09 03:10:23;;;;;;;8.73;4.27;;;;;;;-145.18;100.00;46670.16;6244829;23;20066;-69
2022/10/09 03:12:48;;;;;;;7.83;4.57;;;;;;;-145.18;100.00;46672.13;6244013;23;20069;-69
2022/10/09 03:15:14;;;;;;;6.03;3.20;;;;;;;-145.18;100.00;46679.94;6244590;23;20011;-70
2022/10/09 03:17:40;;;;;;;8.90;3.80;;;;;;;-145.18;100.00;46670.16;6243783;23;20012;-70
2022/10/09 03:20:06;;;;;;;12.50;5.37;;;;;;;-145.18;100.00;46676.03;6244580;23;20257;-70
2022/10/09 03:22:32;;;;;;;9.33;5.30;;;;;;;-145.18;100.00;46666.25;6244387;23;20015;-69
2022/10/09 03:24:57;;;;;;;13.73;5.00;;;;;;;-145.18;100.00;46670.16;6244119;23;20238;-69
2022/10/09 03:27:22;;;;;;;11.77;5.60;;;;;;;-145.18;100.00;46674.06;6243446;23;20008;-69
2022/10/09 03:29:48;;;;;;;9.73;4.40;;;;;;;-145.18;100.00;46666.25;6244158;23;20004;-70
2022/10/09 03:32:13;;;;;;;10.90;4.33;;;;;;;-145.18;100.00;46668.22;6243908;23;20008;-69
2022/10/09 03:34:38;;;;;;;10.47;4.20;;;;;;;-145.18;100.00;46672.13;6244342;23;20012;-70
2022/10/09 03:37:04;;;;;;;9.30;4.60;;;;;;;-145.18;100.00;46664.31;6243631;23;20024;-70
2022/10/09 03:39:31;;;;;;;11.33;4.80;;;;;;;-145.18;100.00;46670.16;6244484;23;20459;-70
2022/10/09 03:41:56;;;;;;;11.57;5.20;;;;;;;-145.18;100.00;46668.22;6244040;23;20015;-69
2022/10/09 03:44:21;;;;;;;10.90;5.70;;;;;;;-145.18;100.00;46674.06;6243760;23;20237;-69
2022/10/09 03:46:47;;;;;;;13.03;5.57;;;;;;;-145.18;100.00;46668.22;6243873;23;20008;-69
2022/10/09 03:49:12;;;;;;;8.33;4.87;;;;;;;-145.18;100.00;46664.31;6244364;23;20388;-69
2022/10/09 03:51:37;;;;;;;9.40;5.53;;;;;;;-145.18;100.00;46670.16;6244398;23;20012;-70
2022/10/09 03:54:03;;;;;;;12.03;5.50;;;;;;;-145.18;100.00;46668.22;6243502;23;20492;-69
2022/10/09 03:56:29;;;;;;;16.33;5.97;;;;;;;-145.18;100.00;46666.25;6216909;23;20012;-69
2022/10/09 03:58:54;;;;;;;15.40;6.23;;;;;;;-145.18;100.00;46664.31;6243532;23;20083;-69
2022/10/09 04:01:19;;;;;;;11.67;5.90;;;;;;;-145.18;100.00;46668.22;6243918;23;20012;-69
2022/10/09 04:03:45;;;;;;;21.83;6.63;;;;;;;-145.18;100.00;46664.31;6243240;23;20020;-69
2022/10/09 04:06:10;;;;;;;16.07;6.60;;;;;;;-145.18;100.00;46664.31;6244215;23;20086;-69
2022/10/09 04:08:35;;;;;;;14.13;7.07;;;;;;;-145.18;100.00;46672.13;6243511;23;20054;-69
2022/10/09 04:11:01;;;;;;;10.77;7.00;;;;;;;-145.18;100.00;46666.25;6243705;23;20012;-69
2022/10/09 04:13:26;;;;;;;10.87;5.27;;;;;;;-145.18;100.00;46666.25;6243548;23;20023;-69
2022/10/09 04:15:53;;;;;;;8.23;4.80;;;;;;;-145.18;100.00;46662.34;6243563;23;20012;-69
2022/10/09 04:18:18;;;;;;;14.27;5.50;;;;;;;-145.18;100.00;46666.25;6243374;23;20079;-70
2022/10/09 04:20:54;;;;;;;13.20;6.23;;;;;;;-145.18;100.00;46664.31;6243580;23;20721;-69
2022/10/09 04:23:23;;;;;;;12.23;6.70;;;;;;;-145.18;100.00;46664.31;6243069;23;20005;-69
2022/10/09 04:25:55;;;;;;;11.83;5.63;;;;;;;-145.18;100.00;46666.25;6243763;23;20244;-69
2022/10/09 04:28:22;;;;;;;11.60;5.90;;;;;;;-145.18;100.00;46666.25;6243280;23;20229;-69
2022/10/09 04:30:47;;;;;;;9.83;5.87;;;;;;;-145.18;100.00;46666.25;6243925;23;20265;-69
2022/10/09 04:33:13;;;;;;;12.80;6.10;;;;;;;-145.18;100.00;46662.34;6243033;23;20242;-69
2022/10/09 04:35:48;;;;;;;10.80;5.50;;;;;;;-145.18;100.00;46658.44;6243660;23;20032;-69
2022/10/09 04:38:13;;;;;;;12.20;4.82;;;;;;;-145.18;100.00;46658.44;6243232;23;20027;-69
2022/10/09 04:40:39;;;;;;;14.03;5.63;;;;;;;-145.18;100.00;46664.31;6243899;23;20032;-69
2022/10/09 04:43:05;;;;;;;13.87;5.77;;;;;;;-145.18;100.00;46668.22;6242536;23;20381;-69
2022/10/09 04:45:30;;;;;;;12.20;5.83;;;;;;;-145.18;100.00;46660.41;6240583;23;20268;-69
2022/10/09 04:47:56;;;;;;;15.77;6.33;;;;;;;-145.18;100.00;46658.44;6240166;23;20016;-69
2022/10/09 04:50:21;;;;;;;11.77;5.33;;;;;;;-145.18;100.00;46668.22;6242721;23;20059;-69
2022/10/09 04:52:46;;;;;;;13.37;5.10;;;;;;;-145.18;100.00;46664.31;6242232;23;20367;-69
2022/10/09 04:55:12;;;;;;;14.27;6.20;;;;;;;-145.18;100.00;46664.31;6242455;23;20008;-69
2022/10/09 04:57:37;;;;;;;10.87;6.13;;;;;;;-145.18;100.00;46668.22;6242190;23;20087;-69
2022/10/09 05:00:04;;;;;;;10.17;5.90;;;;;;;-145.18;100.00;46662.34;6242147;23;20011;-69
2022/10/09 05:02:30;;;;;;;12.63;5.73;;;;;;;-145.18;100.00;46668.22;6242375;23;20012;-69
2022/10/09 05:04:56;;;;;;;10.50;6.20;;;;;;;-145.18;100.00;46664.31;6243677;23;20229;-69
2022/10/09 05:07:22;;;;;;;13.90;6.20;;;;;;;-145.18;100.00;46664.31;6242338;23;20606;-69
2022/10/09 05:09:47;;;;;;;12.20;6.00;;;;;;;-145.18;100.00;46664.31;6242846;23;20000;-69
2022/10/09 05:12:13;;;;;;;11.00;6.00;;;;;;;-145.18;100.00;46666.25;6240945;23;20287;-69
2022/10/09 05:14:38;;;;;;;11.60;5.47;;;;;;;-145.18;100.00;46666.25;6241508;23;20452;-69
2022/10/09 05:17:04;;;;;;;13.10;5.77;;;;;;;-145.18;100.00;46674.06;6242110;23;20091;-69
2022/10/09 05:19:32;;;;;;;10.33;5.20;;;;;;;-145.18;100.00;46666.25;6242376;23;20450;-69
2022/10/09 05:21:59;;;;;;;10.57;5.30;;;;;;;-145.18;100.00;46666.25;6242732;23;20298;-69
2022/10/09 05:24:25;;;;;;;13.80;5.73;;;;;;;-145.18;100.00;46662.34;6241367;23;20232;-69
2022/10/09 05:26:51;;;;;;;8.00;5.00;;;;;;;-145.18;100.00;46668.22;6241323;23;20225;-69
2022/10/09 05:29:16;;;;;;;14.23;6.27;;;;;;;-145.18;100.00;46668.22;6242394;23;20062;-69
2022/10/09 05:31:42;;;;;;;11.57;5.30;;;;;;;-145.18;100.00;46670.16;6242274;23;20012;-69
2022/10/09 05:34:08;;;;;;;9.20;5.33;;;;;;;-145.18;100.00;46666.25;6241741;23;20421;-69
2022/10/09 05:36:33;;;;;;;11.40;4.93;;;;;;;-145.18;100.00;46668.22;6243386;23;20264;-70
2022/10/09 05:39:00;;;;;;;15.27;5.47;;;;;;;-145.18;100.00;46670.16;6240705;23;20008;-70
2022/10/09 05:41:27;;;;;;;9.13;5.40;;;;;;;-145.18;100.00;46670.16;6243277;23;20007;-71
2022/10/09 05:43:53;;;;;;;9.40;4.70;;;;;;;-145.18;100.00;46674.06;6242485;23;20229;-70
2022/10/09 05:46:19;;;;;;;7.97;5.30;;;;;;;-145.18;100.00;46666.25;6243202;23;20269;-69
2022/10/09 05:48:56;;;;;;;9.97;6.10;;;;;;;-145.18;100.00;46674.06;6242297;23;20008;-69
2022/10/09 05:51:27;;;;;;;10.30;5.17;;;;;;;-145.18;100.00;46670.16;6242959;23;20809;-69
2022/10/09 05:53:54;;;;;;;10.80;4.70;;;;;;;-145.18;100.00;46668.22;6242636;23;20369;-69
2022/10/09 05:56:30;;;;;;;12.47;5.60;;;;;;;-145.18;100.00;46666.25;6242693;23;20937;-69
2022/10/09 05:58:57;;;;;;;9.63;5.47;;;;;;;-145.18;100.00;46668.22;6241998;23;20237;-69
2022/10/09 06:01:29;;;;;;;7.47;4.93;;;;;;;-145.18;100.00;46677.97;6242844;23;20226;-69
2022/10/09 06:03:57;;;;;;;10.40;5.90;;;;;;;-145.18;100.00;46670.16;6241898;23;20713;-69
2022/10/09 06:06:25;;;;;;;10.67;5.43;;;;;;;-145.18;100.00;46664.31;6216127;23;20244;-69
2022/10/09 06:08:51;;;;;;;12.67;5.90;;;;;;;-145.18;100.00;46676.03;6242096;23;20229;-69
2022/10/09 06:11:22;;;;;;;9.97;5.77;;;;;;;-145.18;100.00;46672.13;6242889;23;20233;-69
2022/10/09 06:13:48;;;;;;;14.83;7.20;;;;;;;-145.18;100.00;46674.06;6242288;23;20081;-69
2022/10/09 06:16:15;;;;;;;15.40;6.60;;;;;;;-145.18;100.00;46664.31;6241456;23;20261;-69
2022/10/09 06:18:42;;;;;;;16.63;6.30;;;;;;;-145.18;100.00;46670.16;6240339;23;20233;-69
2022/10/09 06:21:08;;;;;;;13.00;6.80;;;;;;;-145.18;100.00;46664.31;6241613;23;20229;-69
2022/10/09 06:23:33;;;;;;;15.10;6.87;;;;;;;-145.18;100.00;46668.22;6242239;23;20238;-69
2022/10/09 06:26:02;;;;;;;13.13;7.03;;;;;;;-145.18;100.00;46668.22;6242283;23;20008;-69
2022/10/09 06:28:29;;;;;;;16.53;7.60;;;;;;;-145.18;100.00;46666.25;6215204;23;19997;-69
2022/10/09 06:31:06;;;;;;;16.67;8.27;;;;;;;-145.18;100.00;46677.97;6242057;23;20269;-69
2022/10/09 06:33:33;;;;;;;16.67;6.50;;;;;;;-145.18;100.00;46668.22;6241668;23;20265;-69
2022/10/09 06:36:00;;;;;;;13.97;6.63;;;;;;;-145.18;100.00;46662.34;6242408;23;20717;-69
2022/10/09 06:38:25;;;;;;;16.13;7.27;;;;;;;-145.18;100.00;46664.31;6242473;23;20380;-69
2022/10/09 06:40:50;;;;;;;18.63;8.63;;;;;;;-145.18;100.00;46658.44;6241950;23;20743;-69
2022/10/09 06:43:16;;;;;;;15.47;8.23;;;;;;;-145.18;100.00;46662.34;6241709;23;20044;-69
2022/10/09 06:45:41;;;;;;;14.47;7.10;;;;;;;-145.18;100.00;46662.34;6244530;23;20012;-70
2022/10/09 06:48:06;;;;;;;16.57;6.70;;;;;;;-145.18;100.00;46664.31;6242007;23;20008;-71
2022/10/09 06:50:34;;;;;;;11.13;7.23;;;;;;;-145.18;100.00;46658.44;6217884;23;20491;-71
2022/10/09 06:53:00;;;;;;;15.80;7.20;;;;;;;-145.18;100.00;46654.53;6243646;23;20424;-71
2022/10/09 06:55:25;;;;;;;17.20;8.23;;;;;;;-145.18;100.00;46660.41;6244302;23;20249;-71
2022/10/09 06:57:50;;;;;;;13.27;7.37;;;;;;;-145.18;100.00;46656.50;6243226;23;20017;-71
2022/10/09 07:00:16;;;;;;;20.70;7.73;;;;;;;-145.18;100.00;46654.53;6244409;23;20019;-72
2022/10/09 07:02:41;;;;;;;15.23;8.80;;;;;;;-145.18;100.00;46660.41;6243581;23;20019;-72
2022/10/09 07:05:07;;;;;;;12.90;8.07;;;;;;;-145.18;100.00;46658.44;6243476;23;20021;-72
2022/10/09 07:07:33;;;;;;;21.53;9.03;;;;;;;-145.18;100.00;46658.44;6243664;23;20433;-72
2022/10/09 07:09:58;;;;;;;21.10;8.70;;;;;;;-145.18;100.00;46658.44;6243406;23;20008;-72
2022/10/09 07:12:23;;;;;;;19.37;9.43;;;;;;;-145.18;100.00;46656.50;6243607;23;20409;-72
2022/10/09 07:14:49;;;;;;;18.97;9.07;;;;;;;-145.18;100.00;46658.44;6240646;23;20007;-71
2022/10/09 07:17:14;;;;;;;23.43;10.30;;;;;;;-145.18;100.00;46656.50;6242457;23;20016;-71
2022/10/09 07:19:39;;;;;;;20.67;10.03;;;;;;;-145.18;100.00;46654.53;6242629;23;20075;-71
2022/10/09 07:22:10;;;;;;;32.13;10.40;;;;;;;-145.18;100.00;46658.44;6243847;23;20464;-71
2022/10/09 07:24:35;;;;;;;18.67;9.90;;;;;;;-145.18;100.00;46654.53;6243259;23;20055;-71
2022/10/09 07:27:01;;;;;;;22.70;9.40;;;;;;;-145.18;100.00;46652.59;6241865;23;20241;-71
2022/10/09 07:29:26;;;;;;;19.50;9.87;;;;;;;-145.18;100.00;46650.63;6243674;23;20091;-71
2022/10/09 07:31:52;;;;;;;21.20;9.40;;;;;;;-145.18;100.00;46654.53;6243482;23;20014;-71
2022/10/09 07:34:17;;;;;;;19.57;10.73;;;;;;;-145.18;100.00;46654.53;6243769;23;20047;-71
2022/10/09 07:36:42;;;;;;;24.20;9.00;;;;;;;-145.18;100.00;46654.53;6243976;23;20011;-71
2022/10/09 07:39:08;;;;;;;22.03;9.43;;;;;;;-145.18;100.00;46654.53;6243540;23;20038;-71
2022/10/09 07:41:33;;;;;;;20.40;7.40;;;;;;;-145.18;100.00;46656.50;6243977;23;20341;-71
2022/10/09 07:43:59;;;;;;;19.20;7.23;;;;;;;-145.18;100.00;46650.63;6243323;23;20011;-71
2022/10/09 07:46:26;;;;;;;18.80;7.43;;;;;;;-145.18;100.00;46656.50;6243865;23;20004;-71
2022/10/09 07:48:51;;;;;;;19.60;7.03;;;;;;;-145.18;100.00;46656.50;6243344;23;20434;-71
2022/10/09 07:51:18;;;;;;;18.77;7.57;;;;;;;-145.18;100.00;46656.50;6242885;23;20238;-71
2022/10/09 07:53:43;;;;;;;24.13;8.10;;;;;;;-145.18;100.00;46658.44;6242975;23;19996;-71
2022/10/09 07:56:14;;;;;;;20.40;8.03;;;;;;;-145.18;100.00;46652.59;6242118;23;20254;-71
2022/10/09 07:58:41;;;;;;;18.73;8.77;;;;;;;-145.18;100.00;46658.44;6242071;23;20011;-71
2022/10/09 08:01:07;;;;;;;16.93;8.27;;;;;;;-145.18;100.00;46654.53;6242525;23;20238;-71
2022/10/09 08:03:34;;;;;;;16.27;7.50;;;;;;;-145.18;100.00;46658.44;6243053;23;20307;-71
2022/10/09 08:05:59;;;;;;;19.30;7.17;;;;;;;-145.18;100.00;46652.59;6243171;23;20336;-71
2022/10/09 08:08:24;;;;;;;23.23;8.10;;;;;;;-145.18;100.00;46664.31;6242947;23;20703;-71
2022/10/09 08:10:50;;;;;;;14.23;7.03;;;;;;;-145.18;100.00;46664.31;6243550;23;20035;-71
2022/10/09 08:13:15;;;;;;;15.43;7.40;;;;;;;-145.18;100.00;46670.16;6243478;23;20027;-71
2022/10/09 08:15:41;;;;;;;13.83;6.90;;;;;;;-145.18;100.00;46664.31;6243908;23;20008;-71
2022/10/09 08:18:08;;;;;;;12.80;7.03;;;;;;;-145.18;100.00;46664.31;6243169;23;20012;-71
2022/10/09 08:20:33;;;;;;;18.67;7.30;;;;;;;-145.18;100.00;46666.25;6243948;23;20749;-72
2022/10/09 08:22:59;;;;;;;16.80;7.43;;;;;;;-145.18;100.00;46660.41;6242792;23;20233;-72
2022/10/09 08:25:24;;;;;;;16.40;7.07;;;;;;;-145.18;100.00;46666.25;6243855;23;20028;-72
2022/10/09 08:27:54;;;;;;;18.87;7.00;;;;;;;-145.18;100.00;46666.25;6242794;23;20015;-72
2022/10/09 08:30:19;;;;;;;17.60;6.80;;;;;;;-145.18;100.00;46670.16;6216679;23;20046;-71
2022/10/09 08:32:45;;;;;;;17.43;7.20;;;;;;;-145.18;100.00;46672.13;6243874;23;20019;-72
2022/10/09 08:35:11;;;;;;;19.30;6.70;;;;;;;-145.18;100.00;46670.16;6243073;23;20008;-72
2022/10/09 08:37:36;;;;;;;18.70;6.60;;;;;;;-145.18;100.00;46676.03;6243661;23;20019;-71
2022/10/09 08:40:03;;;;;;;16.83;6.13;;;;;;;-145.18;100.00;46676.03;6242743;23;20377;-71
2022/10/09 08:42:37;;;;;;;19.47;6.17;;;;;;;-145.18;100.00;46674.06;6243549;23;20087;-72
2022/10/09 08:45:03;;;;;;;19.57;6.50;;;;;;;-145.18;100.00;46679.94;6242871;23;20217;-72
2022/10/09 08:47:45;;;;;;;18.17;5.77;;;;;;;-145.18;100.00;46677.97;6243466;23;20058;-72
2022/10/09 08:50:15;;;;;;;16.23;5.73;;;;;;;-145.18;100.00;46676.03;6242878;23;20015;-72
2022/10/09 08:53:04;;;;;;;11.67;5.10;;;;;;;-145.18;100.00;46666.25;6243660;23;20031;-72
2022/10/09 08:55:45;;;;;;;11.43;5.47;;;;;;;-145.18;100.00;46652.59;6243183;23;20403;-72
2022/10/09 08:58:19;;;;;;;14.00;4.97;;;;;;;-145.18;100.00;46625.22;6242645;23;20008;-72
2022/10/09 09:00:51;;;;;;;17.97;5.43;;;;;;;-145.18;100.00;46611.56;6243529;23;20007;-72
2022/10/09 09:03:31;;;;;;;13.60;5.53;;;;;;;-145.18;100.00;46572.50;6242719;23;20391;-72
2022/10/09 09:06:12;;;;;;;15.00;6.10;;;;;;;-145.18;100.00;46572.50;6242858;23;20012;-72
2022/10/09 09:09:06;;;;;;;11.17;5.13;;;;;;;-145.18;100.00;46552.97;6243051;23;20622;-72
2022/10/09 09:11:40;;;;;;;17.40;6.10;;;;;;;-145.18;100.00;46554.91;6243426;23;20024;-72
2022/10/09 09:14:37;;;;;;;16.60;6.33;;;;;;;-145.18;100.00;46556.88;6242479;23;20000;-71
2022/10/09 09:17:17;;;;;;;14.93;6.45;;;;;;;-145.18;100.00;46554.91;6243439;23;20012;-72
2022/10/09 09:19:55;;;;;;;15.37;5.63;;;;;;;-145.18;100.00;46570.53;6242803;23;20008;-72
2022/10/09 09:22:23;;;;;;;12.93;5.53;;;;;;;-145.18;100.00;46586.16;6243246;23;20027;-72
2022/10/09 09:24:54;;;;;;;17.37;5.87;;;;;;;-145.18;100.00;46578.34;6242846;23;20032;-72
2022/10/09 09:27:37;;;;;;;16.30;5.97;;;;;;;-145.18;100.00;46590.06;6243439;23;20007;-72
2022/10/09 09:30:17;;;;;;;14.70;5.63;;;;;;;-145.18;100.00;46588.13;6242611;23;20581;-72
2022/10/09 09:32:50;;;;;;;16.67;5.80;;;;;;;-145.18;100.00;46595.94;6243590;23;20000;-72
2022/10/09 09:35:41;;;;;;;15.40;5.73;;;;;;;-145.18;100.00;46586.16;6242287;23;20429;-72
2022/10/09 09:38:07;;;;;;;20.70;7.43;;;;;;;-145.18;100.00;46597.88;6242426;23;20000;-72
2022/10/09 09:40:33;;;;;;;13.63;5.87;;;;;;;-145.18;100.00;46593.97;6243034;23;20008;-72
2022/10/09 09:43:00;;;;;;;13.63;5.63;;;;;;;-145.18;100.00;46607.66;6242605;23;20464;-72
2022/10/09 09:45:27;;;;;;;11.63;5.70;;;;;;;-145.18;100.00;46611.56;6242397;23;20008;-72
2022/10/09 09:47:58;;;;;;;14.27;6.63;;;;;;;-145.18;100.00;46607.66;6242954;23;20042;-72
2022/10/09 09:50:30;;;;;;;10.60;4.93;;;;;;;-145.18;100.00;46621.31;6242488;23;20452;-71
2022/10/09 09:53:04;;;;;;;15.83;7.23;;;;;;;-145.18;100.00;46658.44;6242605;23;20008;-72
2022/10/09 09:55:31;;;;;;;16.83;5.17;;;;;;;-145.18;100.00;46646.72;6242902;23;20057;-72
2022/10/09 09:58:06;;;;;;;12.30;4.40;;;;;;;-145.18;100.00;46681.88;6242537;23;20008;-72
2022/10/09 10:00:33;;;;;;;14.83;4.40;;;;;;;-145.18;100.00;46724.84;6242372;23;20015;-72
2022/10/09 10:03:13;;;;;;;12.23;4.17;;;;;;;-145.18;100.00;46679.94;6242179;23;20331;-72
2022/10/09 10:05:40;;;;;;;11.20;4.60;;;;;;;-145.18;100.00;46695.56;6242727;23;20082;-72
2022/10/09 10:08:25;;;;;;;13.07;5.07;;;;;;;-145.18;100.00;46719.00;6242369;23;20004;-72
2022/10/09 10:11:04;;;;;;;10.73;4.73;;;;;;;-145.18;100.00;46758.06;6242870;23;20083;-72
2022/10/09 10:13:47;;;;;;;22.47;4.97;;;;;;;-145.18;100.00;46763.91;6241999;23;20295;-72
2022/10/09 10:16:30;;;;;;;7.50;4.30;;;;;;;-145.18;100.00;46885.03;6241747;23;20452;-72
2022/10/09 10:18:57;;;;;;;12.53;4.73;;;;;;;-145.18;100.00;47160.47;6241448;23;20007;-72
2022/10/09 10:21:23;;;;;;;11.70;4.47;;;;;;;-145.18;100.00;47041.31;6241217;23;20027;-72
2022/10/09 10:24:04;;;;;;;12.93;4.60;;;;;;;-145.18;100.00;47240.56;6241208;23;20482;-72
2022/10/09 10:26:47;;;;;;;12.67;4.40;;;;;;;-145.18;100.00;47066.72;6242341;23;20008;-72
2022/10/09 10:29:36;;;;;;;8.97;4.77;;;;;;;-145.18;100.00;47183.94;6241762;23;20006;-72
2022/10/09 10:32:10;;;;;;;11.77;4.53;;;;;;;-145.18;100.00;47265.97;6242422;23;20004;-72
2022/10/09 10:34:49;;;;;;;11.60;5.63;;;;;;;-145.18;100.00;47312.88;6242026;23;20000;-72
2022/10/09 10:37:14;;;;;;;11.83;5.63;;;;;;;-145.18;100.00;47310.91;6241572;23;20011;-72
2022/10/09 10:39:53;;;;;;;10.07;5.03;;;;;;;-145.18;100.00;47383.19;6240972;23;20012;-72
2022/10/09 10:42:25;;;;;;;12.90;5.20;;;;;;;-145.18;100.00;47316.78;6241299;23;20500;-72
2022/10/09 10:45:09;;;;;;;13.77;5.70;;;;;;;-145.18;100.00;47285.50;6241330;23;20011;-72
2022/10/09 10:47:40;;;;;;;16.97;5.57;;;;;;;-145.18;100.00;47283.56;6241974;23;20011;-72
2022/10/09 10:50:12;;;;;;;14.33;4.77;;;;;;;-145.18;100.00;47277.69;6242109;23;20011;-72
2022/10/09 10:52:50;;;;;;;11.30;4.53;;;;;;;-145.18;100.00;47258.16;6241180;23;20004;-72
2022/10/09 10:55:40;;;;;;;10.73;4.43;;;;;;;-145.18;100.00;47242.53;6241848;23;20015;-72
2022/10/09 10:58:31;;;;;;;15.17;4.23;;;;;;;-145.18;100.00;47269.88;6242723;23;20000;-72
2022/10/09 11:01:15;;;;;;;11.30;4.10;;;;;;;-145.18;100.00;47254.25;6228263;23;20012;-72
2022/10/09 11:03:59;;;;;;;10.27;4.43;;;;;;;-145.18;100.00;47244.50;6241773;23;20107;-72
2022/10/09 11:07:00;;;;;;;10.20;3.93;;;;;;;-145.18;100.00;47240.56;6240863;23;20016;-72
2022/10/09 11:09:39;;;;;;;6.90;3.53;;;;;;;-145.18;100.00;47228.84;6157676;23;20067;-72
2022/10/09 11:12:44;;;;;;;12.57;3.83;;;;;;;-145.18;100.00;47236.66;6241293;23;20000;-72
2022/10/09 11:15:47;;;;;;;11.47;3.27;;;;;;;-145.18;100.00;47219.09;6241188;23;20004;-72
2022/10/09 11:18:21;;;;;;;7.67;3.60;;;;;;;-145.18;100.00;47219.09;6240771;23;20011;-72